Time;durP1;ratioP1;P1;durP2;ratioP2;P2;SDS_P1;SDS_P2;PMS_P1;PMS_P2;Temp;Humidity;BMP_temperature;BMP_pressure;BME280_temperature;BME280_humidity;BME280_pressure;Samples;Min_cycle;Max_cycle;Signal;HPM_P1;HPM_P2
2023/02/05 00:01:20;;;;;;;20.40;11.55;;;;;;;-11.40;71.30;99983.66;4787715;30;20104;-81
2023/02/05 00:03:46;;;;;;;23.95;11.68;;;;;;;-11.45;71.65;99986.16;4788254;29;20057;-81
2023/02/05 00:06:11;;;;;;;28.48;13.80;;;;;;;-11.47;71.92;99984.38;4772428;30;20104;-84
2023/02/05 00:08:37;;;;;;;22.42;9.95;;;;;;;-11.52;71.87;99980.00;4787275;30;20420;-81
2023/02/05 00:11:08;;;;;;;41.75;18.70;;;;;;;-11.60;72.50;99973.84;4787257;30;20078;-81
2023/02/05 00:13:35;;;;;;;39.28;19.75;;;;;;;-11.42;72.12;99986.22;4786943;30;20448;-81
2023/02/05 00:16:07;;;;;;;39.75;20.27;;;;;;;-11.37;71.74;99987.16;4786992;30;20051;-81
2023/02/05 00:18:33;;;;;;;44.75;24.58;;;;;;;-11.46;71.71;99981.00;4787008;30;20146;-82
2023/02/05 00:20:59;;;;;;;31.60;16.55;;;;;;;-11.46;72.58;99986.16;4787008;30;20147;-80
2023/02/05 00:23:25;;;;;;;35.85;17.27;;;;;;;-11.49;72.78;99984.38;4786365;30;20047;-81
2023/02/05 00:25:51;;;;;;;33.95;17.27;;;;;;;-11.58;73.08;99979.91;4787537;30;20051;-82
2023/02/05 00:28:16;;;;;;;30.63;15.88;;;;;;;-11.48;73.37;99977.50;4788239;30;20070;-79
2023/02/05 00:30:42;;;;;;;35.28;16.83;;;;;;;-11.53;73.41;99978.28;4771737;30;20393;-80
2023/02/05 00:33:08;;;;;;;22.30;13.85;;;;;;;-11.47;73.50;99974.06;4786859;30;20051;-81
2023/02/05 00:35:34;;;;;;;38.70;19.55;;;;;;;-11.48;73.24;99975.78;4771989;30;20130;-81
2023/02/05 00:38:01;;;;;;;27.95;14.65;;;;;;;-11.48;73.14;99982.66;4786562;30;20086;-81
2023/02/05 00:40:27;;;;;;;36.95;17.45;;;;;;;-11.43;73.36;99978.44;4786728;30;20078;-81
2023/02/05 00:42:52;;;;;;;47.63;23.75;;;;;;;-11.46;73.05;99973.25;4771619;30;20051;-82
2023/02/05 00:45:19;;;;;;;42.15;21.63;;;;;;;-11.38;72.62;99982.00;4772067;30;20462;-83
2023/02/05 00:47:45;;;;;;;47.05;22.60;;;;;;;-11.37;72.72;99974.25;4757319;30;20043;-83
2023/02/05 00:50:10;;;;;;;44.03;23.13;;;;;;;-11.26;72.57;99992.53;4771908;30;20638;-83
2023/02/05 00:52:36;;;;;;;52.38;24.55;;;;;;;-11.17;72.14;99992.66;4787054;30;20049;-83
2023/02/05 00:55:02;;;;;;;50.95;24.90;;;;;;;-11.16;71.93;99996.16;4787894;30;20504;-83
2023/02/05 00:57:28;;;;;;;51.30;23.00;;;;;;;-11.15;71.32;99982.41;4786644;29;20048;-82
2023/02/05 00:59:54;;;;;;;37.83;19.48;;;;;;;-11.17;71.20;99982.34;4786621;30;20051;-83
2023/02/05 01:02:22;;;;;;;54.08;18.95;;;;;;;-11.23;71.50;99982.25;4787904;30;20587;-82
2023/02/05 01:04:50;;;;;;;44.20;21.07;;;;;;;-11.26;71.58;99984.78;4787911;29;20152;-81
2023/02/05 01:07:19;;;;;;;57.75;23.65;;;;;;;-11.30;72.08;99970.09;4786742;30;20462;-82
2023/02/05 01:09:45;;;;;;;56.35;24.88;;;;;;;-11.23;71.83;99977.09;4786641;30;20519;-80
2023/02/05 01:12:13;;;;;;;49.90;24.52;;;;;;;-11.11;71.55;99977.31;4787669;29;20055;-82
2023/02/05 01:14:40;;;;;;;54.60;26.65;;;;;;;-10.99;71.14;99975.78;4788277;29;20047;-82
2023/02/05 01:17:09;;;;;;;46.78;22.08;;;;;;;-11.11;71.53;99977.31;4771515;30;20076;-82
2023/02/05 01:19:35;;;;;;;57.07;27.07;;;;;;;-11.18;71.25;99975.47;4786652;30;20450;-82
2023/02/05 01:22:01;;;;;;;62.90;29.23;;;;;;;-11.07;70.88;99984.25;4786396;30;20341;-82
2023/02/05 01:24:27;;;;;;;60.40;28.67;;;;;;;-10.94;70.92;99975.03;4786500;30;20096;-82
2023/02/05 01:26:55;;;;;;;59.40;28.10;;;;;;;-10.82;70.70;99982.09;4771456;30;20047;-83
2023/02/05 01:29:21;;;;;;;62.00;29.42;;;;;;;-10.73;70.07;99974.47;4786727;29;20107;-82
2023/02/05 01:31:47;;;;;;;60.15;29.50;;;;;;;-10.62;69.84;99980.66;4771781;30;20051;-82
2023/02/05 01:34:13;;;;;;;64.15;29.17;;;;;;;-10.60;69.16;99973.84;4772858;30;20047;-82
2023/02/05 01:36:39;;;;;;;57.13;28.08;;;;;;;-10.54;68.97;99981.66;4774640;30;20043;-82
2023/02/05 01:39:05;;;;;;;59.05;28.27;;;;;;;-10.62;68.43;99978.09;4775429;30;20488;-82
2023/02/05 01:41:31;;;;;;;59.95;30.13;;;;;;;-10.67;68.37;99979.75;4760352;30;20063;-82
2023/02/05 01:44:12;;;;;;;73.82;31.48;;;;;;;-10.80;68.54;99982.97;4790159;30;20465;-83
2023/02/05 01:46:41;;;;;;;51.53;27.33;;;;;;;-10.96;68.85;99986.16;4791211;29;20074;-82
2023/02/05 01:49:15;;;;;;;54.55;27.45;;;;;;;-11.07;69.54;99989.41;4790737;29;20054;-83
2023/02/05 01:51:44;;;;;;;62.05;30.20;;;;;;;-11.06;69.49;99985.13;4774849;30;20089;-82
2023/02/05 01:54:10;;;;;;;65.35;30.45;;;;;;;-10.98;69.32;99985.25;4789772;30;20051;-81
2023/02/05 01:56:44;;;;;;;56.85;27.40;;;;;;;-10.91;68.98;99979.34;4790836;30;20052;-81
2023/02/05 01:59:20;;;;;;;55.17;27.50;;;;;;;-10.89;69.11;99985.41;4774581;30;20055;-82
2023/02/05 02:01:46;;;;;;;53.55;25.40;;;;;;;-10.77;68.93;99988.19;4774399;30;20059;-81
2023/02/05 02:04:19;;;;;;;56.47;26.67;;;;;;;-10.72;68.73;99991.69;4774399;30;20058;-83
2023/02/05 02:06:45;;;;;;;51.22;25.40;;;;;;;-10.71;68.70;99984.84;4774610;30;20054;-82
2023/02/05 02:09:12;;;;;;;55.75;25.92;;;;;;;-10.70;68.46;99992.59;4774880;30;20047;-81
2023/02/05 02:11:41;;;;;;;36.03;18.40;;;;;;;-10.91;68.58;99994.84;4789599;29;20059;-82
2023/02/05 02:14:09;;;;;;;47.88;19.77;;;;;;;-11.03;69.14;99990.34;4789225;30;20066;-82
2023/02/05 02:16:36;;;;;;;53.10;22.73;;;;;;;-11.09;69.78;99988.53;4759487;30;20055;-82
2023/02/05 02:19:11;;;;;;;35.47;17.13;;;;;;;-11.16;69.55;99994.44;4790143;30;20062;-84
2023/02/05 02:21:58;;;;;;;47.00;20.80;;;;;;;-11.22;69.41;99993.44;4774691;30;20051;-82
2023/02/05 02:24:42;;;;;;;36.28;18.45;;;;;;;-11.41;70.24;99984.50;4789308;30;20062;-82
2023/02/05 02:27:37;;;;;;;38.15;17.92;;;;;;;-11.54;70.39;99984.28;4759595;30;20082;-83
2023/02/05 02:30:28;;;;;;;34.97;18.63;;;;;;;-11.58;70.86;99995.38;4788533;29;20053;-82
2023/02/05 02:33:32;;;;;;;39.22;19.05;;;;;;;-11.45;70.38;99985.28;4774014;30;20051;-83
2023/02/05 02:36:07;;;;;;;43.67;19.10;;;;;;;-11.40;70.40;99981.06;4774599;30;20051;-82
2023/02/05 02:38:50;;;;;;;46.85;18.50;;;;;;;-11.30;70.24;99990.72;4774020;30;20465;-82
2023/02/05 02:41:24;;;;;;;35.53;18.05;;;;;;;-11.28;70.31;99979.59;4759472;30;20043;-83
2023/02/05 02:43:58;;;;;;;21.67;12.02;;;;;;;-11.35;71.04;99982.06;4773913;30;20074;-82
2023/02/05 02:46:39;;;;;;;35.38;16.55;;;;;;;-11.38;71.85;99988.00;4787651;29;20043;-84
2023/02/05 02:49:10;;;;;;;32.90;16.90;;;;;;;-11.30;71.41;99983.00;4789167;30;20058;-83
2023/02/05 02:51:38;;;;;;;46.28;20.75;;;;;;;-11.28;71.89;99989.06;4774387;30;20108;-82
2023/02/05 02:54:08;;;;;;;40.65;19.05;;;;;;;-11.28;72.21;99989.06;4788658;30;20055;-82
2023/02/05 02:56:38;;;;;;;33.40;16.13;;;;;;;-11.25;71.99;99991.69;4775409;30;20058;-82
2023/02/05 02:59:09;;;;;;;41.42;17.98;;;;;;;-11.26;72.48;99977.03;4791278;30;20073;-83
2023/02/05 03:01:38;;;;;;;37.30;18.33;;;;;;;-11.11;72.43;99982.47;4775084;30;20107;-82
2023/02/05 03:04:18;;;;;;;50.55;21.00;;;;;;;-11.01;72.23;99989.53;4774779;30;20054;-81
2023/02/05 03:06:49;;;;;;;45.13;20.45;;;;;;;-10.84;71.88;99991.50;4788405;30;20082;-81
2023/02/05 03:09:26;;;;;;;35.80;17.67;;;;;;;-10.86;72.15;99983.75;4773802;30;20449;-82
2023/02/05 03:11:52;;;;;;;39.78;18.63;;;;;;;-11.03;72.38;99978.28;4773884;30;20155;-82
2023/02/05 03:14:19;;;;;;;34.10;16.80;;;;;;;-11.06;71.87;99993.72;4773301;30;20151;-82
2023/02/05 03:16:45;;;;;;;40.70;19.70;;;;;;;-11.12;72.23;99988.47;4789573;30;20055;-82
2023/02/05 03:19:11;;;;;;;38.63;19.90;;;;;;;-11.22;72.02;99994.31;4790117;30;20107;-83
2023/02/05 03:21:45;;;;;;;30.75;16.05;;;;;;;-11.28;72.24;99989.06;4791652;30;20055;-83
2023/02/05 03:24:12;;;;;;;43.92;19.88;;;;;;;-11.34;72.24;99996.69;4761521;30;20055;-81
2023/02/05 03:26:38;;;;;;;34.28;18.65;;;;;;;-11.37;72.18;99988.88;4789954;30;20078;-82
2023/02/05 03:29:27;;;;;;;43.65;22.17;;;;;;;-11.47;72.16;99992.13;4789002;29;20517;-81
2023/02/05 03:32:27;;;;;;;71.25;30.65;;;;;;;-11.50;72.44;99998.97;4758666;30;20091;-82
2023/02/05 03:35:08;;;;;;;50.83;25.23;;;;;;;-11.53;72.31;100004.06;4773634;30;20047;-85
2023/02/05 03:37:50;;;;;;;37.72;21.25;;;;;;;-11.66;73.00;100007.25;4773079;30;20493;-82
2023/02/05 03:40:46;;;;;;;35.80;18.40;;;;;;;-11.72;73.23;100001.13;4787819;30;20051;-81
2023/02/05 03:43:31;;;;;;;37.28;17.75;;;;;;;-11.82;73.83;100000.06;4788099;30;20055;-83
2023/02/05 03:46:08;;;;;;;41.15;19.08;;;;;;;-11.79;73.63;100005.28;4773254;30;20055;-82
2023/02/05 03:49:09;;;;;;;36.42;16.73;;;;;;;-11.84;73.32;99999.19;4787725;29;20059;-83
2023/02/05 03:51:49;;;;;;;26.38;14.98;;;;;;;-11.92;74.05;100000.72;4752944;30;20051;-83
2023/02/05 03:54:48;;;;;;;44.70;18.33;;;;;;;-11.81;73.82;99996.63;4773040;30;20054;-82
2023/02/05 03:57:27;;;;;;;22.40;13.13;;;;;;;-11.84;74.54;99996.63;4757312;30;20067;-83
2023/02/05 03:59:56;;;;;;;37.28;17.65;;;;;;;-11.79;74.71;99989.81;4772980;30;20047;-81
2023/02/05 04:02:23;;;;;;;39.25;15.88;;;;;;;-11.64;74.58;99989.25;4757789;30;20067;-82
2023/02/05 04:04:49;;;;;;;36.75;19.60;;;;;;;-11.57;74.68;99986.81;4758144;30;20051;-89
2023/02/05 04:07:16;;;;;;;35.60;14.52;;;;;;;-11.46;74.36;99976.69;4787444;30;20062;-85
2023/02/05 04:09:42;;;;;;;39.55;20.23;;;;;;;-11.34;73.97;99988.94;4787152;30;20058;-82
2023/02/05 04:12:09;;;;;;;49.17;19.98;;;;;;;-11.25;73.61;99989.09;4787236;30;20059;-83
2023/02/05 04:14:36;;;;;;;44.03;19.45;;;;;;;-11.18;73.75;99996.09;4773842;30;20390;-84
2023/02/05 04:17:06;;;;;;;47.42;18.55;;;;;;;-11.19;73.17;99993.50;4787382;30;20058;-80
2023/02/05 04:19:33;;;;;;;45.90;17.40;;;;;;;-11.13;73.18;99997.06;4787133;30;20100;-79
2023/02/05 04:22:00;;;;;;;47.53;22.17;;;;;;;-11.02;72.85;99990.38;4786977;30;20051;-83
2023/02/05 04:24:27;;;;;;;36.97;18.15;;;;;;;-10.96;72.56;99988.75;4787151;30;20047;-80
2023/02/05 04:26:53;;;;;;;40.50;18.42;;;;;;;-10.96;72.13;99989.59;4786944;30;20055;-81
2023/02/05 04:29:19;;;;;;;38.78;19.88;;;;;;;-10.96;72.08;99986.16;4787143;29;20051;-81
2023/02/05 04:31:49;;;;;;;38.28;18.48;;;;;;;-10.84;71.51;99983.75;4787274;30;20059;-85
2023/02/05 04:34:15;;;;;;;53.55;20.40;;;;;;;-10.88;71.51;99974.22;4772070;30;20047;-79
2023/02/05 04:36:40;;;;;;;47.35;19.67;;;;;;;-10.86;71.32;99988.91;4788616;30;20051;-88
2023/02/05 04:39:07;;;;;;;28.95;13.25;;;;;;;-10.89;71.11;99982.84;4773611;30;20049;-81
2023/02/05 04:41:32;;;;;;;35.33;17.67;;;;;;;-10.91;70.86;99990.53;4786962;30;20047;-80
2023/02/05 04:43:58;;;;;;;21.67;11.15;;;;;;;-10.90;70.76;99981.97;4786849;30;20078;-85
2023/02/05 04:46:24;;;;;;;32.90;16.67;;;;;;;-10.89;71.06;100000.91;4790155;30;20096;-85
2023/02/05 04:48:50;;;;;;;43.35;22.17;;;;;;;-10.84;70.82;99988.94;4789727;30;20055;-81
2023/02/05 04:51:16;;;;;;;32.00;16.15;;;;;;;-10.76;70.81;99984.75;4772498;30;20082;-82
2023/02/05 04:53:42;;;;;;;35.72;17.90;;;;;;;-10.80;71.15;100001.91;4772758;30;20474;-83
2023/02/05 04:56:11;;;;;;;26.73;14.95;;;;;;;-10.76;71.13;100000.25;4788342;30;20055;-81
2023/02/05 04:58:38;;;;;;;40.33;16.50;;;;;;;-10.72;70.94;99988.25;4772326;30;20070;-88
2023/02/05 05:01:04;;;;;;;32.10;16.50;;;;;;;-10.77;71.28;99988.19;4787291;30;20047;-80
2023/02/05 05:03:30;;;;;;;27.45;14.32;;;;;;;-10.71;71.54;99990.88;4772662;30;20461;-77
2023/02/05 05:06:02;;;;;;;33.80;17.10;;;;;;;-10.64;71.73;99984.97;4771916;30;20051;-83
2023/02/05 05:08:27;;;;;;;45.67;19.48;;;;;;;-10.43;71.54;99989.56;4772553;30;20100;-82
2023/02/05 05:10:53;;;;;;;42.17;18.92;;;;;;;-10.44;70.91;100002.47;4760665;30;20454;-81
2023/02/05 05:13:19;;;;;;;40.75;20.23;;;;;;;-10.48;70.00;99996.41;4760718;30;20066;-85
2023/02/05 05:15:52;;;;;;;38.53;19.38;;;;;;;-10.49;69.95;99996.34;4791952;30;20047;-87
2023/02/05 05:18:18;;;;;;;34.25;15.38;;;;;;;-10.61;68.98;99997.91;4764900;30;20047;-86
2023/02/05 05:20:44;;;;;;;33.00;16.88;;;;;;;-10.63;68.89;100001.31;4791786;30;20070;-85
2023/02/05 05:23:09;;;;;;;30.80;14.07;;;;;;;-10.53;68.25;100004.09;4791766;30;20058;-89
2023/02/05 05:25:41;;;;;;;58.38;17.35;;;;;;;-10.65;67.85;100009.03;4791402;30;20400;-86
2023/02/05 05:28:06;;;;;;;31.45;13.85;;;;;;;-10.70;67.21;100004.66;4776396;30;20047;-91
2023/02/05 05:30:32;;;;;;;48.22;13.98;;;;;;;-10.65;67.10;100018.50;4775810;30;20054;-86
2023/02/05 05:32:58;;;;;;;26.98;12.27;;;;;;;-10.75;66.99;100004.59;4776040;30;20047;-82
2023/02/05 05:35:27;;;;;;;27.60;13.45;;;;;;;-10.63;66.95;100011.66;4774857;30;20051;-83
2023/02/05 05:37:55;;;;;;;37.08;12.60;;;;;;;-10.41;66.73;100003.41;4791506;30;20051;-87
2023/02/05 05:45:55;;;;;;;26.02;11.85;;;;;;;-10.21;66.37;100008.81;4776325;29;20074;-81
2023/02/05 05:48:20;;;;;;;25.75;11.45;;;;;;;-10.39;65.83;100016.31;4771356;30;20062;-86
2023/02/05 05:50:46;;;;;;;30.50;14.73;;;;;;;-10.10;66.41;100009.81;4781625;30;20051;-84
2023/02/05 05:53:12;;;;;;;28.88;12.93;;;;;;;-9.86;65.66;100008.41;4789775;30;20048;-84
2023/02/05 05:55:38;;;;;;;29.02;12.18;;;;;;;-9.73;65.59;100010.31;4774455;30;20051;-82
2023/02/05 05:58:04;;;;;;;24.55;12.38;;;;;;;-9.64;65.16;100006.94;4791044;29;20412;-81
2023/02/05 06:00:30;;;;;;;27.48;11.63;;;;;;;-9.61;64.81;100005.28;4789215;30;20047;-83
2023/02/05 06:02:56;;;;;;;23.25;12.93;;;;;;;-9.65;64.40;100011.25;4804954;29;20047;-82
2023/02/05 06:05:22;;;;;;;27.88;12.82;;;;;;;-9.35;64.65;100009.88;4790564;30;20061;-88
2023/02/05 06:07:47;;;;;;;31.55;13.70;;;;;;;-9.17;64.82;99998.84;4789969;30;20047;-82
2023/02/05 06:10:13;;;;;;;22.50;12.25;;;;;;;-8.99;64.08;100005.91;4790827;30;20416;-86
2023/02/05 06:12:39;;;;;;;24.85;13.90;;;;;;;-8.81;64.03;100006.06;4805041;29;20067;-86
2023/02/05 06:15:06;;;;;;;26.08;11.57;;;;;;;-8.59;63.29;100010.56;4790770;30;20450;-87
2023/02/05 06:17:32;;;;;;;34.60;13.13;;;;;;;-8.44;62.89;100006.38;4790104;30;20047;-89
2023/02/05 06:19:58;;;;;;;32.20;15.13;;;;;;;-8.24;62.50;99998.69;4794070;29;20100;-89
2023/02/05 06:22:24;;;;;;;27.00;12.90;;;;;;;-8.04;62.52;99996.22;4806350;29;20055;-84
2023/02/05 06:24:50;;;;;;;40.20;18.45;;;;;;;-7.71;62.48;100001.56;4804948;29;20047;-83
2023/02/05 06:27:15;;;;;;;35.08;14.93;;;;;;;-7.57;61.35;99999.00;4776312;30;20051;-86
2023/02/05 06:29:41;;;;;;;28.42;15.02;;;;;;;-7.42;61.11;99998.19;4792895;29;20467;-84
2023/02/05 06:32:07;;;;;;;36.80;16.65;;;;;;;-7.22;61.33;100001.72;4808541;29;20534;-87
2023/02/05 06:34:33;;;;;;;35.50;18.10;;;;;;;-6.83;61.09;99999.19;4790688;30;20055;-85
2023/02/05 06:36:59;;;;;;;34.33;16.80;;;;;;;-6.41;60.19;99993.09;4790592;30;20457;-87
2023/02/05 06:39:24;;;;;;;32.40;15.82;;;;;;;-6.37;58.90;99994.84;4792056;30;20488;-86
2023/02/05 06:41:50;;;;;;;41.38;20.20;;;;;;;-6.20;59.62;99987.88;4766289;30;20047;-87
2023/02/05 06:44:16;;;;;;;37.10;21.42;;;;;;;-5.87;59.31;99992.09;4796788;30;20047;-85
2023/02/05 06:46:42;;;;;;;38.95;20.02;;;;;;;-5.55;58.91;99998.06;4808556;29;20419;-90
2023/02/05 06:49:08;;;;;;;41.63;22.52;;;;;;;-5.23;58.26;100001.38;4790312;30;20046;-83
2023/02/05 06:51:34;;;;;;;45.25;25.33;;;;;;;-4.98;57.87;99996.00;4789702;30;20134;-88
2023/02/05 06:54:00;;;;;;;43.70;24.13;;;;;;;-4.80;56.60;99995.00;4790089;30;20059;-86
2023/02/05 06:56:25;;;;;;;49.05;25.40;;;;;;;-4.97;56.45;99993.38;4788685;30;20503;-84
2023/02/05 06:58:51;;;;;;;56.85;31.58;;;;;;;-5.43;56.08;100003.19;4788717;30;20047;-85
2023/02/05 07:01:17;;;;;;;77.65;37.05;;;;;;;-6.00;56.56;99999.97;4774055;30;20043;-86
2023/02/05 07:03:43;;;;;;;74.78;37.00;;;;;;;-6.37;57.49;99994.84;4788544;30;20511;-84
2023/02/05 07:06:09;;;;;;;98.35;50.50;;;;;;;-6.42;58.10;99988.78;4788324;30;20420;-84
2023/02/05 07:08:36;;;;;;;79.50;42.58;;;;;;;-6.24;58.00;99999.16;4789628;29;20063;-85
2023/02/05 07:11:02;;;;;;;80.75;41.70;;;;;;;-6.06;58.27;99994.78;4788542;30;20054;-89
2023/02/05 07:13:29;;;;;;;74.05;43.63;;;;;;;-5.82;57.70;99989.47;4803938;29;20067;-87
2023/02/05 07:15:54;;;;;;;78.20;42.58;;;;;;;-5.91;57.22;99995.56;4789687;30;20206;-85
2023/02/05 07:18:20;;;;;;;92.45;49.03;;;;;;;-6.36;57.96;99986.16;4788586;30;20130;-80
2023/02/05 07:20:47;;;;;;;126.32;68.45;;;;;;;-6.32;58.26;99995.69;4787705;30;20043;-88
2023/02/05 07:23:13;;;;;;;129.95;54.00;;;;;;;-6.23;58.74;99987.88;4789382;29;20055;-81
2023/02/05 07:25:39;;;;;;;113.22;57.58;;;;;;;-6.29;58.74;99987.88;4787967;30;20055;-82
2023/02/05 07:28:07;;;;;;;100.05;55.13;;;;;;;-6.06;58.87;99982.63;4773165;30;20055;-83
2023/02/05 07:30:34;;;;;;;108.82;53.25;;;;;;;-5.88;58.92;99979.06;4773132;30;20051;-82
2023/02/05 07:33:02;;;;;;;102.00;49.08;;;;;;;-5.77;58.38;99977.28;4787614;29;20134;-82
2023/02/05 07:35:32;;;;;;;90.97;45.45;;;;;;;-5.65;58.65;99982.44;4787848;30;20056;-81
2023/02/05 07:37:58;;;;;;;67.25;35.47;;;;;;;-5.71;58.77;99977.28;4788925;30;20511;-83
2023/02/05 07:40:24;;;;;;;65.15;31.75;;;;;;;-5.61;57.94;99978.09;4772995;30;20058;-84
2023/02/05 07:42:49;;;;;;;47.58;23.58;;;;;;;-5.33;57.38;99984.03;4758240;30;20045;-82
2023/02/05 07:45:15;;;;;;;41.67;22.75;;;;;;;-5.37;57.03;99979.72;4788042;30;20046;-82
2023/02/05 07:47:41;;;;;;;47.38;25.65;;;;;;;-4.90;57.93;99968.13;4790343;29;20518;-82
2023/02/05 07:50:07;;;;;;;46.30;24.90;;;;;;;-4.39;56.94;99965.97;4802296;29;20058;-81
2023/02/05 07:52:33;;;;;;;50.22;25.58;;;;;;;-3.95;56.62;99970.72;4772261;30;20146;-79
2023/02/05 07:54:59;;;;;;;49.30;25.70;;;;;;;-3.60;55.34;99969.44;4787968;30;20138;-80
2023/02/05 07:57:27;;;;;;;41.83;23.50;;;;;;;-3.24;55.36;99962.84;4787545;30;20050;-82
2023/02/05 07:59:53;;;;;;;35.15;21.30;;;;;;;-3.04;53.98;99969.56;4787792;30;20047;-82
2023/02/05 08:02:19;;;;;;;47.20;21.48;;;;;;;-2.99;53.60;99959.88;4772967;30;20415;-81
2023/02/05 08:04:45;;;;;;;38.50;21.17;;;;;;;-2.81;52.50;99967.44;4787352;30;20047;-80
2023/02/05 08:07:12;;;;;;;49.60;24.52;;;;;;;-2.86;51.29;99968.41;4787944;30;20086;-83
2023/02/05 08:09:38;;;;;;;42.58;22.83;;;;;;;-3.19;51.17;99968.88;4773013;30;20058;-81
2023/02/05 08:12:05;;;;;;;46.88;25.15;;;;;;;-3.10;51.75;99969.63;4773004;30;20055;-79
2023/02/05 08:14:31;;;;;;;45.45;25.67;;;;;;;-3.33;51.41;99962.97;4772330;30;20066;-80
2023/02/05 08:16:58;;;;;;;51.17;24.67;;;;;;;-3.41;51.46;99964.84;4772755;30;20096;-79
2023/02/05 08:19:24;;;;;;;48.95;23.85;;;;;;;-3.40;50.65;99963.94;4787300;30;20065;-82
2023/02/05 08:21:53;;;;;;;41.35;21.55;;;;;;;-3.67;50.38;99971.25;4795007;30;20126;-88
2023/02/05 08:24:19;;;;;;;39.15;20.42;;;;;;;-3.62;50.72;99972.94;4804636;29;20135;-81
2023/02/05 08:26:45;;;;;;;39.35;19.67;;;;;;;-3.33;51.04;99960.38;4787201;30;20195;-86
2023/02/05 08:29:11;;;;;;;41.00;16.55;;;;;;;-3.22;49.75;99952.38;4754732;30;20138;-82
2023/02/05 08:31:37;;;;;;;29.33;16.42;;;;;;;-3.03;49.30;99960.81;4770539;30;20055;-81
2023/02/05 08:34:06;;;;;;;25.83;13.88;;;;;;;-3.03;48.99;99955.59;4770078;30;20082;-79
2023/02/05 08:36:31;;;;;;;22.13;11.60;;;;;;;-3.00;49.04;99956.41;4770106;30;20087;-87
2023/02/05 08:38:57;;;;;;;18.92;9.85;;;;;;;-2.92;48.84;99952.81;4755364;30;20055;-80
2023/02/05 08:41:23;;;;;;;14.98;8.65;;;;;;;-3.12;48.12;99950.47;4770342;30;20043;-81
2023/02/05 08:43:50;;;;;;;20.92;10.05;;;;;;;-3.05;48.94;99946.88;4769667;30;20081;-81
2023/02/05 08:46:21;;;;;;;24.55;10.68;;;;;;;-2.95;48.04;99951.09;4783859;30;20055;-80
2023/02/05 08:48:47;;;;;;;27.52;11.02;;;;;;;-2.97;48.05;99950.25;4775684;30;20054;-82
2023/02/05 08:51:14;;;;;;;19.67;10.45;;;;;;;-3.14;47.69;99944.44;4786794;30;20534;-80
2023/02/05 08:53:40;;;;;;;22.45;11.70;;;;;;;-3.30;47.71;99947.25;4787600;29;20104;-79
2023/02/05 08:56:09;;;;;;;24.67;10.35;;;;;;;-3.34;47.50;99949.94;4786796;30;20592;-79
2023/02/05 08:58:36;;;;;;;22.20;12.00;;;;;;;-3.52;48.24;99938.84;4788010;29;20054;-81
2023/02/05 09:01:09;;;;;;;30.80;11.95;;;;;;;-3.44;48.13;99946.59;4801668;29;20084;-77
2023/02/05 09:03:35;;;;;;;20.05;10.55;;;;;;;-3.70;48.09;99945.16;4757249;30;20039;-80
2023/02/05 09:06:04;;;;;;;28.33;12.90;;;;;;;-3.63;48.47;99937.25;4756971;30;20058;-80
2023/02/05 09:08:30;;;;;;;42.13;14.57;;;;;;;-3.86;48.25;99930.56;4786639;29;20055;-81
2023/02/05 09:10:56;;;;;;;28.67;14.43;;;;;;;-3.80;48.18;99934.84;4786980;30;20531;-78
2023/02/05 09:13:22;;;;;;;27.17;13.85;;;;;;;-3.81;48.12;99933.13;4786196;29;20082;-79
2023/02/05 09:15:48;;;;;;;28.70;13.80;;;;;;;-3.60;48.16;99935.47;4801954;29;20551;-84
2023/02/05 09:18:15;;;;;;;29.17;14.25;;;;;;;-3.43;48.06;99932.63;4771576;30;20079;-79
2023/02/05 09:20:42;;;;;;;30.13;15.35;;;;;;;-3.30;47.09;99928.97;4784605;30;20089;-79
2023/02/05 09:23:15;;;;;;;32.30;15.85;;;;;;;-3.31;47.16;99922.00;4802366;29;20181;-79
2023/02/05 09:25:42;;;;;;;38.28;15.45;;;;;;;-3.15;46.48;99927.00;4771318;30;20043;-84
2023/02/05 09:28:10;;;;;;;27.70;13.25;;;;;;;-3.26;46.18;99911.47;4801380;29;20043;-80
2023/02/05 09:30:38;;;;;;;30.85;13.65;;;;;;;-3.22;46.48;99921.00;4773485;30;20488;-82
2023/02/05 09:33:05;;;;;;;31.63;12.32;;;;;;;-2.88;47.10;99913.50;4787238;30;20043;-78
2023/02/05 09:35:32;;;;;;;24.23;11.75;;;;;;;-2.56;45.98;99914.69;4787944;30;20047;-79
2023/02/05 09:37:59;;;;;;;28.23;12.50;;;;;;;-2.33;45.79;99915.16;4787721;30;20112;-80
2023/02/05 09:40:34;;;;;;;25.65;10.95;;;;;;;-2.09;44.95;99911.19;4771945;30;20043;-82
2023/02/05 09:43:33;;;;;;;28.65;12.25;;;;;;;-1.80;45.57;99913.25;4771672;30;20047;-81
2023/02/05 09:46:40;;;;;;;25.77;11.63;;;;;;;-1.47;44.47;99910.78;4786444;30;20113;-80
2023/02/05 09:49:17;;;;;;;22.05;11.77;;;;;;;-0.98;44.29;99914.91;4784612;30;20051;-81
2023/02/05 09:51:48;;;;;;;30.08;12.65;;;;;;;-0.71;44.52;99908.16;4798579;29;20051;-82
2023/02/05 09:54:16;;;;;;;23.50;11.88;;;;;;;-0.62;43.91;99907.03;4785735;29;20054;-81
2023/02/05 09:56:44;;;;;;;31.65;13.23;;;;;;;-0.46;43.85;99908.38;4774616;30;20104;-80
2023/02/05 09:59:18;;;;;;;24.52;12.23;;;;;;;-0.17;43.30;99897.09;4789526;30;20063;-81
2023/02/05 10:02:02;;;;;;;22.73;12.32;;;;;;;-0.03;43.03;99904.59;4775268;30;20051;-82
2023/02/05 10:04:28;;;;;;;20.05;10.32;;;;;;;-0.29;42.16;99887.78;4774602;30;20051;-80
2023/02/05 10:07:02;;;;;;;28.33;10.13;;;;;;;-0.15;42.95;99897.91;4789267;30;20051;-81
2023/02/05 10:09:56;;;;;;;17.00;8.73;;;;;;;-0.09;42.29;99912.63;4774273;30;20047;-82
2023/02/05 10:12:25;;;;;;;16.20;8.63;;;;;;;-0.23;42.49;99920.03;4790428;30;20112;-79
2023/02/05 10:15:23;;;;;;;16.92;9.48;;;;;;;-0.35;43.00;99910.72;4774741;30;20055;-82
2023/02/05 10:17:59;;;;;;;27.30;9.32;;;;;;;-0.09;42.70;99902.13;4774232;30;20083;-85
2023/02/05 10:20:37;;;;;;;16.55;9.07;;;;;;;0.10;42.19;99903.34;4789487;30;20052;-88
2023/02/05 10:23:17;;;;;;;19.55;9.63;;;;;;;0.12;42.46;99906.78;4774280;30;20072;-84
2023/02/05 10:26:10;;;;;;;17.30;8.82;;;;;;;0.10;41.54;99902.47;4789398;30;20055;-80
2023/02/05 10:29:10;;;;;;;19.67;8.55;;;;;;;0.33;41.33;99900.03;4789841;30;20059;-81
2023/02/05 10:31:54;;;;;;;20.23;8.82;;;;;;;0.42;41.02;99909.44;4774630;30;20400;-82
2023/02/05 10:34:39;;;;;;;24.08;8.75;;;;;;;0.29;40.66;99902.81;4774247;30;20401;-80
2023/02/05 10:37:13;;;;;;;20.23;10.30;;;;;;;0.17;40.96;99898.75;4789082;30;20058;-79
2023/02/05 10:39:39;;;;;;;30.48;11.07;;;;;;;-0.01;41.65;99900.13;4772567;30;20047;-81
2023/02/05 10:42:08;;;;;;;21.35;10.85;;;;;;;0.25;41.47;99904.66;4787449;30;20055;-82
2023/02/05 10:44:43;;;;;;;26.58;12.05;;;;;;;0.36;41.44;99910.47;4767015;30;20043;-80
2023/02/05 10:47:15;;;;;;;23.00;11.65;;;;;;;0.54;40.74;99902.94;4786697;30;20051;-80
2023/02/05 10:50:00;;;;;;;26.17;12.45;;;;;;;0.38;41.03;99907.81;4785643;30;20047;-83
2023/02/05 10:52:26;;;;;;;28.95;12.88;;;;;;;0.42;41.72;99912.06;4781263;30;20096;-83
2023/02/05 10:54:52;;;;;;;34.30;13.73;;;;;;;0.64;41.20;99910.53;4779697;30;20150;-83
2023/02/05 10:57:20;;;;;;;28.23;12.10;;;;;;;0.83;40.50;99910.81;4803162;29;20146;-81
2023/02/05 10:59:55;;;;;;;32.08;12.85;;;;;;;0.99;41.10;99921.72;4773749;30;20099;-93
2023/02/05 11:02:30;;;;;;;31.45;13.18;;;;;;;1.02;41.26;99926.03;4787548;30;20054;-82
2023/02/05 11:05:00;;;;;;;25.92;14.50;;;;;;;0.92;41.07;99914.91;4787069;30;20047;-82
2023/02/05 11:07:34;;;;;;;32.13;14.23;;;;;;;1.03;40.29;99918.06;4788035;29;20055;-82
2023/02/05 11:10:18;;;;;;;29.17;16.20;;;;;;;1.09;40.41;99922.28;4782448;30;20048;-82
2023/02/05 11:12:49;;;;;;;30.55;14.75;;;;;;;1.15;40.31;99917.69;4755177;30;20447;-82
2023/02/05 11:15:27;;;;;;;33.20;12.10;;;;;;;0.83;39.59;99909.94;4772529;30;20051;-80
2023/02/05 11:17:59;;;;;;;23.23;12.27;;;;;;;0.67;40.49;99906.91;4772740;30;20101;-82
2023/02/05 11:20:37;;;;;;;23.55;13.63;;;;;;;0.77;39.84;99915.41;4802430;29;20500;-83
2023/02/05 11:23:05;;;;;;;33.17;14.30;;;;;;;0.80;39.97;99910.06;4787838;30;20043;-81
2023/02/05 11:25:31;;;;;;;25.42;12.90;;;;;;;0.66;39.94;99921.84;4768911;30;20043;-82
2023/02/05 11:28:04;;;;;;;29.50;15.13;;;;;;;0.34;40.55;99911.41;4779021;30;20048;-83
2023/02/05 11:30:34;;;;;;;28.33;15.63;;;;;;;0.09;40.21;99916.53;4771172;30;20054;-84
2023/02/05 11:33:30;;;;;;;33.40;16.13;;;;;;;0.17;40.96;99919.81;4801381;29;20087;-81